Time;durP1;ratioP1;P1;durP2;ratioP2;P2;SDS_P1;SDS_P2;PMS_P1;PMS_P2;Temp;Humidity;BMP_temperature;BMP_pressure;BME280_temperature;BME280_humidity;BME280_pressure;Samples;Min_cycle;Max_cycle;Signal;HPM_P1;HPM_P2
2023/05/03 00:02:38;;;;;;;2.53;2.17;;;;;;;20.66;28.13;95410.63;6147562;22;110393;-65
2023/05/03 00:05:44;;;;;;;3.67;2.20;;;;;;;20.56;28.23;95419.53;6137121;28;108993;-66
2023/05/03 00:08:47;;;;;;;2.00;1.90;;;;;;;20.49;28.29;95405.78;6127305;28;109171;-66
2023/05/03 00:11:50;;;;;;;2.30;2.10;;;;;;;20.43;28.21;95410.41;6136964;28;108912;-65
2023/05/03 00:14:53;;;;;;;2.50;2.30;;;;;;;20.39;28.20;95419.22;6137307;28;109172;-65
2023/05/03 00:17:56;;;;;;;2.93;1.87;;;;;;;20.37;27.93;95410.75;6137049;27;109204;-65
2023/05/03 00:21:01;;;;;;;1.83;1.73;;;;;;;20.44;28.12;95424.47;6248327;27;111314;-65
2023/05/03 00:24:05;;;;;;;2.23;2.10;;;;;;;20.40;27.90;95439.41;6143855;27;109307;-64
2023/05/03 00:27:08;;;;;;;2.37;2.03;;;;;;;20.29;27.81;95430.78;6136956;28;111812;-65
2023/05/03 00:30:12;;;;;;;2.27;2.17;;;;;;;20.30;27.90;95433.13;6134644;27;109270;-65
2023/05/03 00:33:15;;;;;;;2.40;2.20;;;;;;;20.24;27.66;95460.84;6127781;28;109994;-66
2023/05/03 00:36:19;;;;;;;5.37;2.27;;;;;;;20.11;28.13;95445.56;6136796;28;109911;-65
2023/05/03 00:39:23;;;;;;;4.47;2.20;;;;;;;20.09;27.71;95438.94;6136105;28;109123;-66
2023/05/03 00:42:26;;;;;;;3.00;2.23;;;;;;;20.10;27.80;95432.56;6125292;27;109213;-66
2023/05/03 00:45:31;;;;;;;4.13;2.40;;;;;;;19.97;28.15;95442.78;6152280;27;109232;-65
2023/05/03 00:48:34;;;;;;;2.20;1.83;;;;;;;20.01;28.00;95445.69;6124078;28;109046;-65
2023/05/03 00:51:40;;;;;;;1.60;1.50;;;;;;;19.93;27.94;95427.69;6153348;27;109140;-65
2023/05/03 00:54:44;;;;;;;2.40;2.20;;;;;;;19.88;28.10;95414.47;6150042;27;109173;-65
2023/05/03 00:57:47;;;;;;;3.10;2.80;;;;;;;19.90;27.91;95418.44;6149775;27;110270;-66
2023/05/03 01:00:50;;;;;;;2.60;2.10;;;;;;;20.12;27.87;95436.50;6148611;27;109852;-67
2023/05/03 01:03:53;;;;;;;2.33;1.90;;;;;;;20.11;27.92;95428.81;6134306;28;109332;-66
2023/05/03 01:07:09;;;;;;;3.33;2.10;;;;;;;20.17;27.91;95425.84;6125630;27;109003;-66
2023/05/03 01:10:21;;;;;;;2.30;2.10;;;;;;;20.16;27.79;95418.91;6135763;28;111445;-66
2023/05/03 01:13:33;;;;;;;2.93;2.37;;;;;;;20.19;27.93;95415.72;6135945;27;109177;-62
2023/05/03 01:16:40;;;;;;;2.20;2.00;;;;;;;20.11;28.00;95403.06;6125523;28;109187;-61
2023/05/03 01:19:47;;;;;;;2.50;2.30;;;;;;;20.08;28.07;95408.16;6129025;27;109081;-60
2023/05/03 01:23:14;;;;;;;2.60;2.40;;;;;;;20.00;27.98;95383.00;6131762;28;109523;-60
2023/05/03 01:26:22;;;;;;;2.40;2.20;;;;;;;20.08;28.07;95406.28;6136436;27;109175;-72
2023/05/03 01:29:25;;;;;;;3.33;2.40;;;;;;;20.03;28.32;95393.06;6122223;28;110587;-61
2023/05/03 01:32:36;;;;;;;2.17;1.97;;;;;;;19.98;28.28;95387.78;6135527;27;108930;-60
2023/05/03 01:35:41;;;;;;;2.30;2.10;;;;;;;19.98;28.11;95380.59;6136428;27;109149;-60
2023/05/03 01:38:45;;;;;;;2.23;2.00;;;;;;;19.91;28.33;95388.13;6132323;27;111077;-60
2023/05/03 01:41:51;;;;;;;2.30;2.10;;;;;;;19.86;28.35;95374.13;6122097;27;109088;-61
2023/05/03 01:44:55;;;;;;;2.40;2.20;;;;;;;19.94;28.22;95368.19;6135983;27;109302;-61
2023/05/03 01:47:59;;;;;;;2.47;2.10;;;;;;;19.93;28.28;95366.59;6129582;28;110033;-60
2023/05/03 01:51:02;;;;;;;3.70;2.50;;;;;;;19.92;28.23;95370.34;6121926;27;109093;-60
2023/05/03 01:54:06;;;;;;;2.23;2.00;;;;;;;19.91;28.12;95366.09;6131490;27;109135;-60
2023/05/03 01:57:10;;;;;;;2.10;1.90;;;;;;;19.78;28.49;95348.19;6134531;27;109797;-62
2023/05/03 02:00:15;;;;;;;5.43;2.13;;;;;;;19.87;28.20;95362.44;6132556;27;109114;-60
2023/05/03 02:03:18;;;;;;;3.57;2.37;;;;;;;19.86;28.27;95356.34;6121225;28;109335;-62
2023/05/03 02:06:21;;;;;;;2.53;2.33;;;;;;;19.85;28.46;95335.38;6135905;27;108728;-60
2023/05/03 02:09:25;;;;;;;5.00;2.50;;;;;;;19.87;28.63;95331.38;6132689;27;109273;-62
2023/05/03 02:12:30;;;;;;;2.80;2.00;;;;;;;19.94;28.50;95338.97;6132170;27;109924;-63
2023/05/03 02:15:33;;;;;;;2.20;2.00;;;;;;;19.91;28.35;95340.34;6107339;28;109327;-60
2023/05/03 02:18:36;;;;;;;2.73;2.47;;;;;;;19.92;28.34;95347.22;6131720;27;109053;-62
2023/05/03 02:21:39;;;;;;;4.33;2.53;;;;;;;19.88;28.61;95345.44;6123985;28;108972;-61
2023/05/03 02:24:42;;;;;;;2.60;2.40;;;;;;;19.88;28.54;95348.88;6125511;27;109032;-65
2023/05/03 02:27:46;;;;;;;2.80;2.37;;;;;;;19.85;28.64;95346.78;6134151;28;109073;-66
2023/05/03 02:30:49;;;;;;;2.23;2.03;;;;;;;19.83;28.48;95338.31;6127101;28;110016;-65
2023/05/03 02:33:53;;;;;;;2.20;2.00;;;;;;;19.96;28.40;95342.13;6116806;28;109797;-65
2023/05/03 02:36:56;;;;;;;2.37;2.17;;;;;;;19.98;28.21;95350.59;6124498;28;110448;-64
2023/05/03 02:40:00;;;;;;;2.33;2.13;;;;;;;19.92;28.41;95344.56;6130818;27;109137;-65
2023/05/03 02:43:05;;;;;;;5.13;2.30;;;;;;;19.85;28.38;95338.03;6127708;28;108967;-66
2023/05/03 02:46:08;;;;;;;2.57;2.37;;;;;;;19.94;28.46;95344.28;6138126;27;108989;-66
2023/05/03 02:49:11;;;;;;;2.30;2.10;;;;;;;19.95;28.40;95346.66;6124385;27;109355;-65
2023/05/03 02:52:14;;;;;;;2.70;2.50;;;;;;;19.95;28.54;95340.56;6134741;28;109782;-65
2023/05/03 02:55:18;;;;;;;2.77;2.57;;;;;;;19.96;28.55;95331.50;6119638;27;108727;-65
2023/05/03 02:58:22;;;;;;;9.93;3.07;;;;;;;20.15;28.59;95332.31;6130720;28;108993;-65
2023/05/03 03:01:26;;;;;;;4.40;2.50;;;;;;;20.04;28.50;95322.91;6125037;28;109057;-65
2023/05/03 03:04:29;;;;;;;3.13;2.93;;;;;;;20.05;28.38;95313.88;6135315;27;108895;-65
2023/05/03 03:07:32;;;;;;;3.07;2.43;;;;;;;20.21;28.61;95327.75;6134540;28;109196;-64
2023/05/03 03:10:35;;;;;;;4.27;2.20;;;;;;;20.31;28.60;95330.28;6107867;28;109002;-65
2023/05/03 03:13:40;;;;;;;4.47;2.90;;;;;;;20.30;28.79;95331.38;6117365;28;110180;-64
2023/05/03 03:16:43;;;;;;;3.97;2.60;;;;;;;20.26;28.97;95339.13;6110771;28;109189;-67
2023/05/03 03:19:46;;;;;;;3.43;3.03;;;;;;;20.21;29.66;95330.41;6120131;28;109008;-66
2023/05/03 03:22:49;;;;;;;3.33;3.03;;;;;;;20.22;29.71;95339.97;6122101;28;109417;-65
2023/05/03 03:25:52;;;;;;;3.93;3.20;;;;;;;20.24;29.54;95353.75;6120313;28;111320;-70
2023/05/03 03:28:57;;;;;;;9.80;3.43;;;;;;;20.30;29.83;95356.06;6123808;28;110162;-65
2023/05/03 03:32:00;;;;;;;9.13;3.40;;;;;;;20.30;29.67;95369.34;6134368;28;109930;-64
2023/05/03 03:35:03;;;;;;;4.00;2.40;;;;;;;20.25;29.68;95368.66;6122491;28;109386;-64
2023/05/03 03:38:06;;;;;;;5.00;3.07;;;;;;;20.14;29.69;95367.94;6119825;28;109134;-65
2023/05/03 03:41:10;;;;;;;2.87;2.57;;;;;;;20.11;29.77;95371.16;6128002;28;109057;-65
2023/05/03 03:44:14;;;;;;;3.30;3.00;;;;;;;20.09;29.61;95370.66;6124831;28;109060;-64
2023/05/03 03:47:17;;;;;;;9.30;3.20;;;;;;;20.12;29.77;95374.63;6122477;28;110244;-65
2023/05/03 03:50:21;;;;;;;6.37;2.70;;;;;;;20.00;30.25;95385.66;6126112;28;109026;-64
2023/05/03 03:53:24;;;;;;;4.23;2.70;;;;;;;19.99;30.51;95373.44;6120396;28;109249;-63
2023/05/03 03:56:27;;;;;;;9.50;4.00;;;;;;;20.11;30.28;95381.00;6109850;27;109017;-64
2023/05/03 03:59:31;;;;;;;8.30;3.90;;;;;;;20.30;31.36;95387.97;6125161;28;109188;-68
2023/05/03 04:02:34;;;;;;;5.87;4.43;;;;;;;20.59;33.23;95400.34;6122831;28;109320;-69
2023/05/03 04:05:38;;;;;;;10.90;4.50;;;;;;;20.71;34.12;95400.72;6114545;28;110001;-70
2023/05/03 04:08:41;;;;;;;11.70;3.60;;;;;;;20.86;34.23;95405.03;6117911;28;109254;-70
2023/05/03 04:11:44;;;;;;;6.27;3.97;;;;;;;20.97;34.34;95411.75;6129506;28;112388;-75
2023/05/03 04:14:49;;;;;;;5.50;3.80;;;;;;;21.00;33.96;95413.84;6136469;28;109194;-69
2023/05/03 04:17:52;;;;;;;8.17;5.13;;;;;;;21.03;34.19;95415.16;6115223;28;109574;-68
2023/05/03 04:20:55;;;;;;;7.90;4.83;;;;;;;20.96;32.73;95415.50;6120598;28;110335;-68
2023/05/03 04:23:59;;;;;;;8.93;4.13;;;;;;;20.87;32.94;95415.38;6134734;27;109098;-67
2023/05/03 04:27:03;;;;;;;10.40;5.03;;;;;;;20.94;33.09;95430.97;6137882;28;110312;-67
2023/05/03 04:30:10;;;;;;;10.03;5.30;;;;;;;20.91;32.60;95436.88;6126746;27;108763;-67
2023/05/03 04:33:14;;;;;;;6.77;4.80;;;;;;;20.93;32.80;95434.72;6118087;28;110982;-67
2023/05/03 04:36:17;;;;;;;6.20;4.70;;;;;;;20.87;32.27;95443.84;6112049;28;109456;-67
2023/05/03 04:39:20;;;;;;;7.47;4.40;;;;;;;20.88;32.24;95448.88;6113264;28;109344;-67
2023/05/03 04:42:23;;;;;;;4.63;3.67;;;;;;;20.87;32.26;95454.50;6112524;28;108905;-67
2023/05/03 04:45:28;;;;;;;6.33;3.43;;;;;;;20.85;32.78;95452.13;6136919;28;109120;-67
2023/05/03 04:48:31;;;;;;;3.63;3.10;;;;;;;20.79;32.94;95466.56;6137182;28;108834;-67
2023/05/03 04:51:34;;;;;;;5.90;3.33;;;;;;;20.81;32.55;95459.06;6134586;27;109222;-66
2023/05/03 04:54:37;;;;;;;4.13;3.33;;;;;;;20.74;32.53;95461.31;6114040;27;109349;-67
2023/05/03 04:57:41;;;;;;;3.50;2.90;;;;;;;20.75;32.35;95478.06;6113601;28;109224;-67
2023/05/03 05:00:45;;;;;;;3.20;2.90;;;;;;;20.76;32.33;95477.78;6117145;28;109248;-66
2023/05/03 05:03:48;;;;;;;2.97;2.67;;;;;;;20.74;32.16;95479.94;6126443;27;109027;-67
2023/05/03 05:06:53;;;;;;;3.40;3.10;;;;;;;20.77;32.60;95476.69;6136536;28;111647;-66
2023/05/03 05:09:56;;;;;;;5.70;3.20;;;;;;;20.75;32.43;95488.69;6130003;28;110086;-67
2023/05/03 05:12:59;;;;;;;4.97;3.20;;;;;;;20.77;33.29;95486.53;6112722;28;109721;-67
2023/05/03 05:16:04;;;;;;;4.57;3.13;;;;;;;20.83;33.14;95488.84;6102767;28;110147;-66
2023/05/03 05:19:08;;;;;;;11.23;3.07;;;;;;;20.87;33.75;95487.22;6117240;28;109172;-66
2023/05/03 05:22:11;;;;;;;5.60;3.40;;;;;;;20.89;34.15;95490.38;6134588;28;108857;-66
2023/05/03 05:25:14;;;;;;;13.23;4.47;;;;;;;20.92;34.31;95496.97;6124156;28;108744;-67
2023/05/03 05:28:17;;;;;;;6.47;3.73;;;;;;;20.96;34.58;95507.84;6123455;28;109421;-67
2023/05/03 05:31:23;;;;;;;7.80;3.57;;;;;;;20.91;33.79;95506.84;6121676;27;108852;-67
2023/05/03 05:34:26;;;;;;;14.83;4.47;;;;;;;20.85;34.27;95501.88;6134660;27;110241;-66
2023/05/03 05:37:29;;;;;;;19.07;6.40;;;;;;;20.80;33.88;95501.91;6130801;27;110313;-70
2023/05/03 05:40:32;;;;;;;15.50;6.07;;;;;;;20.82;33.84;95503.22;6114619;27;109995;-70
2023/05/03 05:43:35;;;;;;;13.50;4.20;;;;;;;20.85;33.91;95501.88;6124564;28;109475;-70
2023/05/03 05:46:40;;;;;;;15.57;4.83;;;;;;;20.83;33.87;95494.16;6127391;27;109252;-69
2023/05/03 05:49:43;;;;;;;10.20;4.70;;;;;;;20.84;34.13;95498.44;6112535;28;109112;-68
2023/05/03 05:52:46;;;;;;;7.90;3.90;;;;;;;20.88;34.40;95486.13;6122353;28;109297;-68
2023/05/03 05:55:49;;;;;;;5.10;3.23;;;;;;;20.88;33.54;95490.66;6117943;28;108975;-68
2023/05/03 05:58:52;;;;;;;6.73;3.40;;;;;;;20.87;34.08;95487.22;6113648;28;109450;-68
2023/05/03 06:01:58;;;;;;;5.77;2.80;;;;;;;20.85;32.91;95486.69;6107310;28;109884;-75
2023/05/03 06:05:02;;;;;;;5.40;4.47;;;;;;;20.84;34.08;95490.44;6124358;28;109581;-67
2023/05/03 06:08:09;;;;;;;4.83;3.50;;;;;;;20.82;32.74;95479.28;6113155;28;109335;-67
2023/05/03 06:11:13;;;;;;;3.53;3.23;;;;;;;20.81;33.46;95474.25;6111280;28;109349;-67
2023/05/03 06:14:18;;;;;;;4.50;3.20;;;;;;;20.84;33.40;95481.66;6116909;27;109053;-69
2023/05/03 06:17:24;;;;;;;7.00;3.60;;;;;;;20.83;32.81;95482.72;6123221;28;108768;-67
2023/05/03 06:20:27;;;;;;;4.60;3.50;;;;;;;20.82;33.37;95473.94;6113663;28;109890;-68
2023/05/03 06:23:32;;;;;;;5.10;3.67;;;;;;;20.89;32.97;95479.72;6112379;28;109709;-68
2023/05/03 06:26:35;;;;;;;5.60;5.10;;;;;;;20.86;33.05;95482.19;6128406;28;108861;-68
2023/05/03 06:29:38;;;;;;;4.43;3.80;;;;;;;20.85;32.93;95489.38;6122387;28;111809;-68
2023/05/03 06:32:43;;;;;;;3.77;3.20;;;;;;;20.85;32.73;95480.59;6128209;28;109255;-68
2023/05/03 06:35:47;;;;;;;3.87;3.47;;;;;;;20.84;32.84;95473.69;6114885;27;109023;-68
2023/05/03 06:38:50;;;;;;;3.40;2.90;;;;;;;20.73;32.80;95454.41;6119829;27;108990;-68
2023/05/03 06:41:53;;;;;;;6.33;3.40;;;;;;;20.74;32.25;95457.84;6120951;28;109085;-69
2023/05/03 06:44:56;;;;;;;4.50;3.80;;;;;;;20.79;32.99;95473.75;6134347;27;109568;-68
2023/05/03 06:48:01;;;;;;;4.47;4.07;;;;;;;20.78;32.87;95459.66;6124925;28;110768;-68
2023/05/03 06:51:04;;;;;;;3.80;3.43;;;;;;;20.78;32.25;95456.19;6130010;28;109039;-68
2023/05/03 06:54:08;;;;;;;3.93;3.63;;;;;;;20.78;32.12;95448.22;6127019;28;108895;-68
2023/05/03 06:57:11;;;;;;;4.60;3.37;;;;;;;20.76;32.68;95440.53;6121812;28;110083;-69
2023/05/03 07:00:16;;;;;;;3.33;3.03;;;;;;;20.73;32.01;95435.78;6108587;28;108764;-67
2023/05/03 07:03:20;;;;;;;3.27;2.97;;;;;;;20.48;32.06;95444.09;6114545;28;109061;-71
2023/05/03 07:06:24;;;;;;;3.50;2.83;;;;;;;20.46;32.39;95444.38;6126590;27;109261;-72
2023/05/03 07:09:27;;;;;;;5.50;3.00;;;;;;;20.47;32.82;95445.97;6113334;28;109390;-69
2023/05/03 07:12:45;;;;;;;3.07;2.77;;;;;;;20.26;32.71;95448.06;6133744;28;109083;-63
2023/05/03 07:15:48;;;;;;;3.83;2.87;;;;;;;19.90;32.90;95455.63;6135694;27;109204;-63
2023/05/03 07:18:52;;;;;;;4.37;3.13;;;;;;;19.76;33.35;95451.25;6135053;27;109200;-62
2023/05/03 07:21:55;;;;;;;4.40;3.30;;;;;;;19.77;33.11;95445.66;6123661;28;109092;-63
2023/05/03 07:24:58;;;;;;;6.20;3.00;;;;;;;19.76;33.17;95432.66;6134260;28;109070;-63
2023/05/03 07:28:02;;;;;;;7.50;3.00;;;;;;;19.80;33.24;95449.59;6134592;28;109252;-63
2023/05/03 07:31:05;;;;;;;3.10;2.70;;;;;;;19.68;33.15;95456.09;6130068;27;109030;-63
2023/05/03 07:34:10;;;;;;;5.90;2.77;;;;;;;19.73;33.36;95450.72;6130509;27;110216;-63
2023/05/03 07:37:13;;;;;;;6.27;2.93;;;;;;;19.78;33.09;95449.09;6134321;28;109408;-63
2023/05/03 07:40:16;;;;;;;3.50;3.20;;;;;;;19.76;33.34;95433.44;6134936;27;108988;-63
2023/05/03 07:43:22;;;;;;;4.17;3.03;;;;;;;19.73;33.37;95429.50;6124124;27;109205;-63
2023/05/03 07:46:25;;;;;;;3.00;2.70;;;;;;;19.83;33.39;95449.06;6134932;27;108636;-62
2023/05/03 07:49:34;;;;;;;3.80;2.83;;;;;;;19.83;33.36;95441.09;6120348;28;109618;-63
2023/05/03 07:52:37;;;;;;;3.00;2.77;;;;;;;19.93;33.35;95446.28;6110827;28;109289;-62
2023/05/03 07:55:40;;;;;;;4.30;2.80;;;;;;;19.91;33.35;95435.16;6099404;28;109035;-62
2023/05/03 07:58:43;;;;;;;3.80;3.17;;;;;;;19.82;33.59;95442.13;6110472;28;109022;-63
2023/05/03 08:01:50;;;;;;;3.50;2.93;;;;;;;19.84;33.69;95455.97;6110007;28;109344;-63
2023/05/03 08:04:55;;;;;;;3.50;3.03;;;;;;;19.78;33.81;95446.44;6105491;28;110083;-63
2023/05/03 08:07:58;;;;;;;4.80;3.20;;;;;;;19.81;33.66;95440.56;6105304;28;109396;-63
2023/05/03 08:11:01;;;;;;;5.60;3.03;;;;;;;19.78;33.81;95439.25;6111473;28;112508;-67
2023/05/03 08:14:04;;;;;;;101.47;13.37;;;;;;;19.55;34.30;95432.84;6113385;28;109878;-62
2023/05/03 08:17:08;;;;;;;19.37;4.90;;;;;;;19.69;34.17;95441.75;6102814;28;109031;-62
2023/05/03 08:20:13;;;;;;;6.37;3.80;;;;;;;19.83;34.12;95446.41;6113506;28;108823;-62
2023/05/03 08:23:16;;;;;;;5.57;3.07;;;;;;;19.92;33.82;95436.75;6113923;28;109172;-61
2023/05/03 08:26:20;;;;;;;6.77;3.03;;;;;;;19.96;33.75;95437.75;6114035;28;109082;-61
2023/05/03 08:29:24;;;;;;;4.10;3.60;;;;;;;20.04;33.65;95442.47;6103702;28;108974;-62
2023/05/03 08:32:30;;;;;;;3.33;3.00;;;;;;;20.13;33.66;95445.28;6114018;28;109492;-62
2023/05/03 08:35:34;;;;;;;3.97;3.57;;;;;;;20.17;33.48;95444.44;6113599;28;109515;-62
2023/05/03 08:38:40;;;;;;;5.77;4.00;;;;;;;20.25;33.63;95438.53;6115845;28;109029;-63
2023/05/03 08:41:43;;;;;;;5.47;3.57;;;;;;;20.37;33.50;95434.69;6102943;28;108950;-62
2023/05/03 08:44:48;;;;;;;3.77;3.47;;;;;;;20.46;33.59;95432.94;6113437;28;109172;-62
2023/05/03 08:47:54;;;;;;;4.87;3.67;;;;;;;20.51;33.46;95432.91;6113565;28;109047;-62
2023/05/03 08:51:01;;;;;;;3.03;2.83;;;;;;;20.57;33.44;95442.38;6126896;28;109366;-62
2023/05/03 08:54:05;;;;;;;4.47;3.63;;;;;;;20.51;33.17;95428.38;6136788;27;109151;-61
2023/05/03 08:57:11;;;;;;;2.87;2.63;;;;;;;20.63;33.48;95438.56;6137191;28;110074;-61
2023/05/03 09:00:16;;;;;;;2.93;2.73;;;;;;;20.68;33.61;95438.53;6130251;28;109114;-61
2023/05/03 09:03:19;;;;;;;3.00;2.80;;;;;;;20.70;33.58;95441.69;6110662;27;109197;-62
2023/05/03 09:06:25;;;;;;;3.80;3.10;;;;;;;20.73;33.35;95445.63;6121750;28;110167;-62
2023/05/03 09:09:31;;;;;;;3.60;3.30;;;;;;;20.70;33.49;95440.91;6113579;28;109228;-61
2023/05/03 09:12:37;;;;;;;3.77;3.33;;;;;;;20.76;33.52;95434.44;6134110;28;108753;-62
2023/05/03 09:15:40;;;;;;;4.17;3.87;;;;;;;20.80;33.42;95414.94;6114522;28;110047;-62
2023/05/03 09:18:56;;;;;;;4.17;3.77;;;;;;;20.86;33.41;95419.13;6127033;28;109066;-62
2023/05/03 09:22:07;;;;;;;4.13;3.53;;;;;;;20.83;33.38;95414.34;6118486;28;109468;-62
2023/05/03 09:25:11;;;;;;;3.57;3.20;;;;;;;20.83;33.64;95411.69;6125080;28;109862;-65
2023/05/03 09:28:14;;;;;;;3.20;2.90;;;;;;;20.87;33.75;95406.63;6130761;27;109035;-64
2023/05/03 09:31:18;;;;;;;3.80;3.47;;;;;;;20.93;33.39;95419.53;6122712;28;108835;-65
2023/05/03 09:34:22;;;;;;;3.17;2.90;;;;;;;20.90;33.52;95406.81;6135521;28;109084;-65
2023/05/03 09:37:37;;;;;;;5.07;3.10;;;;;;;20.89;33.78;95396.47;6113987;27;109140;-65
2023/05/03 09:40:48;;;;;;;4.27;3.73;;;;;;;20.88;33.68;95390.38;6135651;27;109065;-64
2023/05/03 09:43:54;;;;;;;3.40;3.10;;;;;;;20.89;33.85;95383.19;6127573;27;109201;-64
2023/05/03 09:47:04;;;;;;;3.80;3.43;;;;;;;20.90;33.50;95379.44;6111849;28;108736;-63
2023/05/03 09:50:08;;;;;;;3.33;3.13;;;;;;;20.92;33.76;95385.25;6118216;28;109296;-64
2023/05/03 09:53:14;;;;;;;3.37;3.17;;;;;;;20.81;33.86;95359.88;6119756;28;109667;-64
2023/05/03 09:56:19;;;;;;;4.83;3.63;;;;;;;20.93;34.20;95376.19;6130139;28;109441;-62
2023/05/03 09:59:22;;;;;;;9.40;4.53;;;;;;;21.01;33.75;95364.91;6116299;28;108746;-64
2023/05/03 10:02:26;;;;;;;5.93;3.60;;;;;;;21.11;34.19;95366.63;6127717;28;109250;-64
2023/05/03 10:05:32;;;;;;;3.50;3.20;;;;;;;21.18;34.15;95367.06;6116815;28;109304;-64
2023/05/03 10:08:41;;;;;;;3.43;3.10;;;;;;;21.23;34.61;95363.50;6138030;28;109190;-64
2023/05/03 10:11:48;;;;;;;7.90;3.50;;;;;;;21.27;34.58;95377.81;6112918;28;109236;-64
2023/05/03 10:14:53;;;;;;;5.50;3.20;;;;;;;21.26;34.49;95377.03;6112251;28;108988;-63
2023/05/03 10:17:59;;;;;;;9.03;3.60;;;;;;;21.27;34.77;95359.97;6132225;28;109161;-64
2023/05/03 10:21:09;;;;;;;4.60;3.33;;;;;;;21.30;34.48;95348.72;6123844;28;109361;-65
2023/05/03 10:24:16;;;;;;;4.90;3.43;;;;;;;21.33;34.72;95340.16;6121349;28;109987;-64
2023/05/03 10:27:21;;;;;;;169.13;19.03;;;;;;;21.44;37.79;95333.56;6113081;28;108979;-64
2023/05/03 10:30:30;;;;;;;47.20;11.03;;;;;;;21.41;35.63;95322.72;6126323;28;112521;-63
2023/05/03 10:33:34;;;;;;;46.23;10.10;;;;;;;21.38;35.77;95326.78;6110947;28;109878;-64
2023/05/03 10:36:37;;;;;;;28.87;8.63;;;;;;;21.34;35.81;95317.81;6123594;28;109986;-60
2023/05/03 10:39:54;;;;;;;26.77;6.93;;;;;;;21.29;35.60;95320.53;6128216;28;110173;-62
2023/05/03 10:42:59;;;;;;;32.87;6.50;;;;;;;21.24;35.69;95299.34;6114937;28;109187;-61
2023/05/03 10:46:04;;;;;;;17.27;5.50;;;;;;;21.32;35.89;95317.28;6102497;28;109000;-60
2023/05/03 10:49:21;;;;;;;27.93;6.90;;;;;;;21.30;35.53;95324.78;6124725;28;109332;-64
2023/05/03 10:52:49;;;;;;;98.23;12.30;;;;;;;21.11;35.56;95318.72;6134760;28;108991;-60
2023/05/03 10:56:07;;;;;;;95.00;13.60;;;;;;;21.21;35.64;95334.53;6129834;28;108818;-63
2023/05/03 10:59:12;;;;;;;64.70;10.23;;;;;;;21.18;35.82;95330.59;6123576;28;109663;-61
2023/05/03 11:02:20;;;;;;;55.70;9.50;;;;;;;21.27;35.66;95328.03;6115544;28;109597;-60
2023/05/03 11:05:28;;;;;;;46.77;8.40;;;;;;;21.30;35.39;95327.44;6126655;28;109617;-60
2023/05/03 11:08:36;;;;;;;52.63;8.30;;;;;;;21.31;35.19;95317.56;6113533;28;109008;-61
2023/05/03 11:11:42;;;;;;;30.83;6.97;;;;;;;21.27;35.36;95305.94;6120635;27;109317;-61
2023/05/03 11:14:46;;;;;;;22.63;5.97;;;;;;;21.31;35.23;95310.38;6118858;28;109043;-61
2023/05/03 11:17:49;;;;;;;18.83;4.93;;;;;;;21.29;35.31;95330.41;6113854;27;109435;-62
2023/05/03 11:20:56;;;;;;;21.33;5.50;;;;;;;21.29;35.56;95314.41;6115572;28;110108;-61
2023/05/03 11:24:01;;;;;;;24.30;4.60;;;;;;;21.30;35.22;95316.78;6121605;28;109366;-61
2023/05/03 11:27:07;;;;;;;10.33;5.00;;;;;;;21.29;35.37;95309.09;6131308;28;109308;-61
2023/05/03 11:30:12;;;;;;;24.00;5.70;;;;;;;21.31;36.21;95322.91;6110007;28;110182;-61
2023/05/03 11:33:20;;;;;;;15.67;5.20;;;;;;;21.21;35.28;95305.25;6126237;27;110737;-61
2023/05/03 11:36:25;;;;;;;15.57;6.70;;;;;;;21.18;35.71;95306.63;6121926;28;109134;-61
2023/05/03 11:39:32;;;;;;;29.93;7.47;;;;;;;21.15;35.83;95307.19;6119377;28;109023;-59
2023/05/03 11:42:53;;;;;;;124.80;19.43;;;;;;;21.12;35.92;95307.00;6111330;28;109224;-65
2023/05/03 11:45:59;;;;;;;72.53;11.13;;;;;;;21.14;37.75;95284.34;6126523;27;109118;-70
2023/05/03 11:49:03;;;;;;;59.27;9.47;;;;;;;21.21;37.41;95292.75;6123826;28;112621;-64
2023/05/03 11:52:06;;;;;;;34.43;7.80;;;;;;;21.26;37.12;95285.75;6119237;28;111246;-64
2023/05/03 11:55:11;;;;;;;29.97;7.87;;;;;;;21.28;37.09;95297.66;6125046;28;109311;-64
2023/05/03 11:58:18;;;;;;;33.67;6.57;;;;;;;21.30;36.37;95311.47;6121773;28;109036;-63
2023/05/03 12:01:24;;;;;;;30.27;7.00;;;;;;;21.29;36.18;95290.47;6113503;28;109003;-65
2023/05/03 12:04:27;;;;;;;27.93;7.40;;;;;;;21.31;36.05;95286.44;6111250;28;109918;-64
2023/05/03 12:07:31;;;;;;;31.97;7.00;;;;;;;21.24;36.11;95280.72;6117024;28;109384;-64
2023/05/03 12:10:35;;;;;;;33.27;8.43;;;;;;;21.31;36.01;95296.28;6125509;27;110342;-63
2023/05/03 12:13:44;;;;;;;26.53;7.70;;;;;;;21.30;35.81;95295.50;6116269;28;108854;-64
2023/05/03 12:16:52;;;;;;;24.63;5.53;;;;;;;21.28;35.96;95297.66;6118146;27;109037;-64
2023/05/03 12:20:13;;;;;;;17.37;5.60;;;;;;;21.28;35.53;95292.34;6120644;27;109219;-63
2023/05/03 12:23:36;;;;;;;29.33;5.90;;;;;;;21.29;35.58;95285.94;6112234;28;108903;-63
2023/05/03 12:26:40;;;;;;;25.93;7.07;;;;;;;21.28;35.51;95287.03;6115240;28;109289;-64
2023/05/03 12:29:45;;;;;;;21.23;6.03;;;;;;;21.23;35.85;95289.78;6124788;27;108825;-63
2023/05/03 12:32:49;;;;;;;19.93;5.30;;;;;;;21.25;35.80;95295.59;6128864;27;109012;-64
2023/05/03 12:35:53;;;;;;;21.87;6.30;;;;;;;21.24;35.61;95290.56;6128795;27;109003;-63
2023/05/03 12:38:59;;;;;;;13.10;5.13;;;;;;;21.23;35.50;95284.47;6125674;28;109022;-64
2023/05/03 12:42:04;;;;;;;15.63;5.20;;;;;;;21.23;35.70;95286.34;6114366;27;109008;-64
2023/05/03 12:45:12;;;;;;;20.40;5.80;;;;;;;21.19;35.60;95286.13;6127606;28;109205;-64
2023/05/03 12:48:16;;;;;;;20.03;5.30;;;;;;;21.20;35.71;95282.38;6124460;27;108975;-64
2023/05/03 12:51:19;;;;;;;17.87;5.60;;;;;;;21.19;35.64;95278.94;6117397;28;110123;-62
2023/05/03 12:54:28;;;;;;;13.10;4.60;;;;;;;21.18;35.72;95282.69;6136649;27;109104;-65
2023/05/03 12:57:36;;;;;;;15.40;4.90;;;;;;;21.17;35.38;95286.44;6129672;28;109963;-62
2023/05/03 13:00:42;;;;;;;9.10;5.27;;;;;;;21.17;35.51;95274.97;6115586;28;109039;-61
2023/05/03 13:04:05;;;;;;;13.87;4.43;;;;;;;21.16;35.35;95281.38;6111379;28;110433;-59
2023/05/03 13:07:29;;;;;;;9.40;4.50;;;;;;;21.09;35.67;95273.00;6113742;28;111527;-60
2023/05/03 13:10:40;;;;;;;12.00;4.40;;;;;;;21.14;35.60;95281.66;6127396;28;109045;-60
2023/05/03 13:13:44;;;;;;;16.70;4.33;;;;;;;21.14;35.38;95281.66;6108607;28;109255;-60
2023/05/03 13:16:50;;;;;;;11.10;4.23;;;;;;;21.09;36.02;95280.97;6133568;27;110244;-63
2023/05/03 13:19:53;;;;;;;19.30;5.10;;;;;;;21.16;36.10;95292.03;6120649;28;110380;-64
2023/05/03 13:22:57;;;;;;;26.97;6.07;;;;;;;21.16;36.99;95298.13;6118232;28;109186;-66
2023/05/03 13:26:00;;;;;;;34.90;6.20;;;;;;;21.08;37.74;95306.00;6123386;28;109085;-65
2023/05/03 13:29:03;;;;;;;35.50;6.67;;;;;;;21.12;37.97;95309.66;6120254;28;109328;-64
2023/05/03 13:32:08;;;;;;;46.40;7.60;;;;;;;21.15;37.92;95319.72;6120394;28;109327;-65
2023/05/03 13:35:12;;;;;;;40.00;7.43;;;;;;;21.18;38.90;95314.63;6104976;28;108850;-66
2023/05/03 13:38:15;;;;;;;36.67;6.20;;;;;;;21.08;37.98;95314.00;6126814;28;109359;-66
2023/05/03 13:41:18;;;;;;;15.20;5.57;;;;;;;20.91;38.75;95309.19;6136496;27;108989;-67
2023/05/03 13:44:24;;;;;;;29.63;5.87;;;;;;;20.90;38.65;95310.28;6127521;28;109715;-65
2023/05/03 13:47:28;;;;;;;16.10;5.40;;;;;;;20.84;39.38;95308.78;6126274;27;108970;-66
2023/05/03 13:50:51;;;;;;;12.17;4.80;;;;;;;20.86;39.80;95323.38;6121957;28;108880;-66
2023/05/03 13:53:59;;;;;;;20.53;5.90;;;;;;;20.87;39.26;95324.94;6128001;28;108882;-65
2023/05/03 13:57:02;;;;;;;14.47;5.10;;;;;;;20.93;39.70;95339.72;6154456;28;108999;-67
2023/05/03 14:00:07;;;;;;;10.93;4.67;;;;;;;20.99;39.97;95331.66;6113112;28;109817;-64
2023/05/03 14:03:12;;;;;;;18.07;4.20;;;;;;;21.01;39.60;95325.00;6119837;28;108936;-66
2023/05/03 14:06:15;;;;;;;13.27;5.20;;;;;;;21.00;39.61;95312.75;6119300;28;109511;-67
2023/05/03 14:09:19;;;;;;;10.63;4.60;;;;;;;20.99;40.05;95311.16;6117137;27;109122;-67
2023/05/03 14:12:24;;;;;;;10.30;4.60;;;;;;;21.02;40.15;95307.16;6120585;28;109062;-68
2023/05/03 14:15:28;;;;;;;12.00;4.60;;;;;;;21.06;40.17;95305.53;6110769;28;109572;-69
2023/05/03 14:18:32;;;;;;;10.23;4.50;;;;;;;20.99;40.43;95299.75;6120832;28;109050;-69